Time;durP1;ratioP1;P1;durP2;ratioP2;P2;SDS_P1;SDS_P2;PMS_P1;PMS_P2;Temp;Humidity;BMP_temperature;BMP_pressure;BME280_temperature;BME280_humidity;BME280_pressure;Samples;Min_cycle;Max_cycle;Signal;HPM_P1;HPM_P2
2022/10/23 00:00:32;;;;;;;0.10;0.10;;;;;;;;;;6256975;22;20022;-96
2022/10/23 00:02:58;;;;;;;0.10;0.10;;;;;;;;;;6257284;22;20011;-95
2022/10/23 00:05:32;;;;;;;0.10;0.10;;;;;;;;;;6269265;22;20293;-96
2022/10/23 00:07:58;;;;;;;0.10;0.10;;;;;;;;;;6259983;22;20011;-96
2022/10/23 00:10:25;;;;;;;0.10;0.10;;;;;;;;;;6256015;22;20022;-96
2022/10/23 00:12:51;;;;;;;0.10;0.10;;;;;;;;;;6256638;22;20022;-95
2022/10/23 00:15:18;;;;;;;0.10;0.10;;;;;;;;;;6257505;22;20019;-96
2022/10/23 00:17:44;;;;;;;0.10;0.10;;;;;;;;;;6257397;22;20022;-96
2022/10/23 00:20:10;;;;;;;0.10;0.10;;;;;;;;;;6259644;22;20096;-96
2022/10/23 00:22:36;;;;;;;0.10;0.10;;;;;;;;;;6258790;22;20054;-96
2022/10/23 00:25:02;;;;;;;0.10;0.10;;;;;;;;;;6256860;22;20007;-96
2022/10/23 00:27:28;;;;;;;0.10;0.10;;;;;;;;;;6256354;22;20015;-95
2022/10/23 00:29:54;;;;;;;0.10;0.10;;;;;;;;;;6257997;22;20027;-95
2022/10/23 00:32:20;;;;;;;0.10;0.10;;;;;;;;;;6257594;22;20019;-96
2022/10/23 00:34:46;;;;;;;0.10;0.10;;;;;;;;;;6256845;22;20011;-96
2022/10/23 00:37:13;;;;;;;0.10;0.10;;;;;;;;;;6256434;22;20139;-96
2022/10/23 00:39:51;;;;;;;0.10;0.10;;;;;;;;;;6257066;22;20015;-96
2022/10/23 00:42:18;;;;;;;0.10;0.10;;;;;;;;;;6258993;22;20095;-96
2022/10/23 00:44:44;;;;;;;0.10;0.10;;;;;;;;;;6256546;22;20011;-96
2022/10/23 00:47:10;;;;;;;0.10;0.10;;;;;;;;;;6281878;22;20012;-95
2022/10/23 00:49:36;;;;;;;0.10;0.10;;;;;;;;;;6255960;22;20144;-96
2022/10/23 00:52:05;;;;;;;0.10;0.10;;;;;;;;;;6255981;22;20181;-96
2022/10/23 00:54:38;;;;;;;0.10;0.10;;;;;;;;;;6256406;22;20007;-96
2022/10/23 00:57:07;;;;;;;0.10;0.10;;;;;;;;;;6255780;22;20007;-96
2022/10/23 00:59:34;;;;;;;0.10;0.10;;;;;;;;;;6256431;22;20306;-96
2022/10/23 01:02:00;;;;;;;0.10;0.10;;;;;;;;;;6255451;22;20015;-96
2022/10/23 01:04:26;;;;;;;0.10;0.10;;;;;;;;;;6256477;22;20030;-96
2022/10/23 01:07:07;;;;;;;0.10;0.10;;;;;;;;;;6255725;22;20336;-96
2022/10/23 01:09:43;;;;;;;0.10;0.10;;;;;;;;;;6281120;22;20046;-96
2022/10/23 01:12:09;;;;;;;0.10;0.10;;;;;;;;;;6255690;22;20012;-96
2022/10/23 01:14:43;;;;;;;0.10;0.10;;;;;;;;;;6280493;22;20018;-96
2022/10/23 01:17:09;;;;;;;0.10;0.10;;;;;;;;;;6255483;22;20090;-96
2022/10/23 01:19:54;;;;;;;0.10;0.10;;;;;;;;;;6255730;22;20014;-95
2022/10/23 01:22:46;;;;;;;0.10;0.10;;;;;;;;;;6281457;22;20019;-94
2022/10/23 01:25:32;;;;;;;0.10;0.10;;;;;;;;;;6275578;22;20007;-96
2022/10/23 01:28:00;;;;;;;0.10;0.10;;;;;;;;;;6244426;22;20011;-96
2022/10/23 01:30:26;;;;;;;0.10;0.10;;;;;;;;;;6255689;22;20015;-96
2022/10/23 01:32:53;;;;;;;0.10;0.10;;;;;;;;;;6255772;22;20017;-96
2022/10/23 01:35:22;;;;;;;0.10;0.10;;;;;;;;;;6256061;22;20022;-95
2022/10/23 01:37:55;;;;;;;0.10;0.10;;;;;;;;;;6255592;22;20017;-95
2022/10/23 01:40:26;;;;;;;0.10;0.10;;;;;;;;;;6255597;22;20023;-96
2022/10/23 01:42:53;;;;;;;0.10;0.10;;;;;;;;;;6255448;22;20019;-96
2022/10/23 01:45:21;;;;;;;0.10;0.10;;;;;;;;;;6255869;22;20117;-96
2022/10/23 01:47:47;;;;;;;0.10;0.10;;;;;;;;;;6255077;22;20030;-96
2022/10/23 01:50:14;;;;;;;0.10;0.10;;;;;;;;;;6255928;22;20022;-96
2022/10/23 01:52:40;;;;;;;0.10;0.10;;;;;;;;;;6255086;22;20019;-96
2022/10/23 01:55:06;;;;;;;0.10;0.10;;;;;;;;;;6256600;22;20087;-95
2022/10/23 01:57:32;;;;;;;0.15;0.15;;;;;;;;;;6255147;22;20064;-96
2022/10/23 02:00:04;;;;;;;0.10;0.10;;;;;;;;;;6254819;22;20341;-95
2022/10/23 02:02:33;;;;;;;0.10;0.10;;;;;;;;;;6255436;22;20444;-96
2022/10/23 02:05:24;;;;;;;0.10;0.10;;;;;;;;;;6256301;22;20056;-93
2022/10/23 02:07:53;;;;;;;0.10;0.10;;;;;;;;;;6305302;22;20012;-96
2022/10/23 02:10:19;;;;;;;0.10;0.10;;;;;;;;;;6255364;22;20014;-96
2022/10/23 02:12:45;;;;;;;0.10;0.10;;;;;;;;;;6255528;22;20011;-95
2022/10/23 02:15:20;;;;;;;0.10;0.10;;;;;;;;;;6280770;22;20340;-95
2022/10/23 02:17:49;;;;;;;0.10;0.10;;;;;;;;;;6255173;22;20015;-95
2022/10/23 02:20:26;;;;;;;0.10;0.10;;;;;;;;;;6280238;22;20336;-96
2022/10/23 02:23:02;;;;;;;0.10;0.10;;;;;;;;;;6255561;22;20393;-94
2022/10/23 02:25:35;;;;;;;0.10;0.10;;;;;;;;;;6282778;22;20158;-96
2022/10/23 02:28:08;;;;;;;0.10;0.10;;;;;;;;;;6262912;22;20015;-96
2022/10/23 02:30:37;;;;;;;0.10;0.10;;;;;;;;;;6257486;22;20019;-96
2022/10/23 02:33:03;;;;;;;0.17;0.17;;;;;;;;;;6254653;22;20064;-96
2022/10/23 02:35:29;;;;;;;0.45;0.45;;;;;;;;;;6255187;22;20011;-96
2022/10/23 02:37:55;;;;;;;0.10;0.10;;;;;;;;;;6255129;22;20015;-96
2022/10/23 02:40:22;;;;;;;0.10;0.10;;;;;;;;;;6255224;22;20182;-96
2022/10/23 02:42:53;;;;;;;0.10;0.10;;;;;;;;;;6254962;22;20015;-96
2022/10/23 02:45:26;;;;;;;0.20;0.20;;;;;;;;;;6255297;22;20038;-96
2022/10/23 02:48:00;;;;;;;0.10;0.10;;;;;;;;;;6280315;22;20148;-96
2022/10/23 02:50:33;;;;;;;0.10;0.10;;;;;;;;;;6255160;22;20015;-96
2022/10/23 02:52:58;;;;;;;;;;;;;;;;;;6255363;22;20015;-96
2022/10/23 02:55:25;;;;;;;0.10;0.10;;;;;;;;;;6280116;22;19911;-96
2022/10/23 02:57:54;;;;;;;0.10;0.10;;;;;;;;;;6280220;22;20047;-96
2022/10/23 03:00:21;;;;;;;0.10;0.10;;;;;;;;;;6254981;22;20053;-95
2022/10/23 03:02:53;;;;;;;0.10;0.10;;;;;;;;;;6254722;22;20018;-96
2022/10/23 03:05:19;;;;;;;;;;;;;;;;;;6255012;22;20047;-96
2022/10/23 03:07:45;;;;;;;0.10;0.10;;;;;;;;;;6254328;22;19910;-96
2022/10/23 03:10:11;;;;;;;0.10;0.10;;;;;;;;;;6254644;22;20050;-96
2022/10/23 03:12:38;;;;;;;0.10;0.10;;;;;;;;;;6254858;22;20014;-95
2022/10/23 03:15:04;;;;;;;0.10;0.10;;;;;;;;;;6254824;22;20015;-95
2022/10/23 03:17:30;;;;;;;0.10;0.10;;;;;;;;;;6255071;22;20026;-95
2022/10/23 03:19:56;;;;;;;0.10;0.10;;;;;;;;;;6255354;22;20015;-95
2022/10/23 03:22:22;;;;;;;0.20;0.20;;;;;;;;;;6255187;22;20054;-95
2022/10/23 03:24:48;;;;;;;0.10;0.10;;;;;;;;;;6255359;22;20345;-95
2022/10/23 03:27:15;;;;;;;0.10;0.10;;;;;;;;;;6256250;22;20401;-95
2022/10/23 03:29:41;;;;;;;0.47;0.47;;;;;;;;;;6257329;22;20022;-96
2022/10/23 03:32:07;;;;;;;0.10;0.10;;;;;;;;;;6256707;22;20076;-96
2022/10/23 03:34:33;;;;;;;0.10;0.10;;;;;;;;;;6257028;22;20011;-96
2022/10/23 03:36:59;;;;;;;0.10;0.10;;;;;;;;;;6256514;22;20012;-94
2022/10/23 03:39:25;;;;;;;0.10;0.10;;;;;;;;;;6256775;22;20086;-96
2022/10/23 03:41:52;;;;;;;0.22;0.10;;;;;;;;;;6256999;22;20026;-96
2022/10/23 03:44:18;;;;;;;0.10;0.10;;;;;;;;;;6256506;22;20018;-96
2022/10/23 03:46:45;;;;;;;0.10;0.10;;;;;;;;;;6256734;22;20086;-96
2022/10/23 03:49:11;;;;;;;0.10;0.10;;;;;;;;;;6256787;22;20136;-96
2022/10/23 03:51:40;;;;;;;0.10;0.10;;;;;;;;;;6256767;22;20015;-96
2022/10/23 03:54:07;;;;;;;0.10;0.10;;;;;;;;;;6257680;22;20022;-96
2022/10/23 03:56:44;;;;;;;0.20;0.20;;;;;;;;;;6258127;22;20015;-96
2022/10/23 03:59:10;;;;;;;0.10;0.10;;;;;;;;;;6258115;22;20015;-96
2022/10/23 04:01:38;;;;;;;0.10;0.10;;;;;;;;;;6255870;22;20015;-96
2022/10/23 04:04:07;;;;;;;0.10;0.10;;;;;;;;;;6256647;22;20019;-96
2022/10/23 04:06:33;;;;;;;0.10;0.10;;;;;;;;;;6256460;22;20011;-96
2022/10/23 04:08:59;;;;;;;0.10;0.10;;;;;;;;;;6256627;22;20011;-96
2022/10/23 04:11:25;;;;;;;0.10;0.10;;;;;;;;;;6256801;22;20062;-96
2022/10/23 04:13:51;;;;;;;0.15;0.15;;;;;;;;;;6255882;22;20017;-96
2022/10/23 04:16:17;;;;;;;0.28;0.28;;;;;;;;;;6255941;22;20091;-96
2022/10/23 04:18:43;;;;;;;0.10;0.10;;;;;;;;;;6256388;22;20371;-96
2022/10/23 04:21:14;;;;;;;0.10;0.10;;;;;;;;;;6257435;22;20015;-96
2022/10/23 04:24:00;;;;;;;0.10;0.10;;;;;;;;;;6261629;22;20011;-96
2022/10/23 04:26:53;;;;;;;0.20;0.20;;;;;;;;;;6288373;22;20022;-96
2022/10/23 04:29:22;;;;;;;0.10;0.10;;;;;;;;;;6260277;22;20039;-96
2022/10/23 04:31:58;;;;;;;0.10;0.10;;;;;;;;;;6259132;22;20018;-96
2022/10/23 04:34:29;;;;;;;0.10;0.10;;;;;;;;;;6260615;22;20022;-96
2022/10/23 04:36:56;;;;;;;0.10;0.10;;;;;;;;;;6284038;22;20138;-96
2022/10/23 04:39:22;;;;;;;0.20;0.20;;;;;;;;;;6255336;22;20016;-96
2022/10/23 04:41:48;;;;;;;0.10;0.10;;;;;;;;;;6255822;22;20011;-96
2022/10/23 04:44:14;;;;;;;0.10;0.10;;;;;;;;;;6281550;22;20046;-96
2022/10/23 04:46:40;;;;;;;0.10;0.10;;;;;;;;;;6255665;22;20054;-96
2022/10/23 04:49:06;;;;;;;0.10;0.10;;;;;;;;;;6256382;22;20011;-96
2022/10/23 04:51:56;;;;;;;0.10;0.10;;;;;;;;;;6255906;22;20456;-96
2022/10/23 04:54:22;;;;;;;0.40;0.40;;;;;;;;;;6305644;22;20060;-95
2022/10/23 04:56:48;;;;;;;0.10;0.10;;;;;;;;;;6255781;22;20090;-96
2022/10/23 04:59:17;;;;;;;0.10;0.10;;;;;;;;;;6256100;22;20448;-96
2022/10/23 05:01:45;;;;;;;0.30;0.20;;;;;;;;;;6256215;22;20444;-96
2022/10/23 05:04:12;;;;;;;0.10;0.10;;;;;;;;;;6255891;22;20018;-96
2022/10/23 05:06:38;;;;;;;0.22;0.22;;;;;;;;;;6256108;22;20007;-96
2022/10/23 05:09:04;;;;;;;0.10;0.10;;;;;;;;;;6255619;22;20120;-96
2022/10/23 05:11:31;;;;;;;0.80;0.30;;;;;;;;;;6255605;22;20063;-96
2022/10/23 05:13:57;;;;;;;0.15;0.15;;;;;;;;;;6255977;22;20012;-96
2022/10/23 05:16:28;;;;;;;0.10;0.10;;;;;;;;;;6254983;22;20094;-96
2022/10/23 05:18:54;;;;;;;0.20;0.20;;;;;;;;;;6255554;22;20016;-96
2022/10/23 05:21:21;;;;;;;0.10;0.10;;;;;;;;;;6255309;22;20090;-96
2022/10/23 05:23:47;;;;;;;0.10;0.10;;;;;;;;;;6255175;22;20011;-96
2022/10/23 05:26:13;;;;;;;0.10;0.10;;;;;;;;;;6255149;22;20007;-96
2022/10/23 05:28:40;;;;;;;0.10;0.10;;;;;;;;;;6255809;22;20019;-96
2022/10/23 05:31:06;;;;;;;0.10;0.10;;;;;;;;;;6255252;22;20016;-96
2022/10/23 05:33:32;;;;;;;0.10;0.10;;;;;;;;;;6255410;22;20015;-96
2022/10/23 05:35:58;;;;;;;0.20;0.20;;;;;;;;;;6255309;22;20017;-96
2022/10/23 05:38:24;;;;;;;0.10;0.10;;;;;;;;;;6255168;22;20090;-96
2022/10/23 05:40:51;;;;;;;0.10;0.10;;;;;;;;;;6255046;22;20019;-96
2022/10/23 05:43:17;;;;;;;0.10;0.10;;;;;;;;;;6255353;22;20011;-96
2022/10/23 05:45:43;;;;;;;0.10;0.10;;;;;;;;;;6255495;22;20015;-96
2022/10/23 05:48:09;;;;;;;0.10;0.10;;;;;;;;;;6254821;22;20007;-96
2022/10/23 05:50:45;;;;;;;0.10;0.10;;;;;;;;;;6256196;22;20022;-96
2022/10/23 05:53:11;;;;;;;0.10;0.10;;;;;;;;;;6257818;22;20440;-96
2022/10/23 05:55:41;;;;;;;0.10;0.10;;;;;;;;;;6256422;22;20015;-96
2022/10/23 05:58:09;;;;;;;0.10;0.10;;;;;;;;;;6262607;22;20309;-96
2022/10/23 06:00:45;;;;;;;0.10;0.10;;;;;;;;;;6268324;22;20011;-96
2022/10/23 06:03:17;;;;;;;0.10;0.10;;;;;;;;;;6264981;22;20283;-96
2022/10/23 06:11:20;;;;;;;0.10;0.10;;;;;;;;;;6279494;22;20030;-96
2022/10/23 06:13:49;;;;;;;0.30;0.30;;;;;;;;;;6257042;22;20030;-96
2022/10/23 06:16:19;;;;;;;0.10;0.10;;;;;;;;;;6265037;22;20030;-96
2022/10/23 06:22:00;;;;;;;0.20;0.20;;;;;;;;;;6312800;22;20026;-94
2022/10/23 06:24:27;;;;;;;0.10;0.10;;;;;;;;;;6260859;22;20182;-96
2022/10/23 06:26:58;;;;;;;0.10;0.10;;;;;;;;;;6260875;22;20186;-96
2022/10/23 06:29:30;;;;;;;0.10;0.10;;;;;;;;;;6263582;22;20053;-96
2022/10/23 06:35:43;;;;;;;0.13;0.10;;;;;;;;;;6256904;22;20016;-96
2022/10/23 06:38:23;;;;;;;0.20;0.20;;;;;;;;;;6202518;23;20310;-96
2022/10/23 06:40:56;;;;;;;0.10;0.10;;;;;;;;;;6182254;23;20016;-96
2022/10/23 06:43:22;;;;;;;0.47;0.40;;;;;;;;;;6173545;23;20003;-95
2022/10/23 06:45:48;;;;;;;0.30;0.30;;;;;;;;;;6169319;23;20016;-94
2022/10/23 06:48:14;;;;;;;0.10;0.10;;;;;;;;;;6169656;23;20008;-93
2022/10/23 06:50:40;;;;;;;0.10;0.10;;;;;;;;;;6168314;23;20016;-93
2022/10/23 06:53:06;;;;;;;0.20;0.20;;;;;;;;;;6169733;23;20012;-94
2022/10/23 06:55:32;;;;;;;0.10;0.10;;;;;;;;;;6169297;23;20345;-93
2022/10/23 06:58:00;;;;;;;0.10;0.10;;;;;;;;;;6169493;23;20054;-96
2022/10/23 07:00:26;;;;;;;0.10;0.10;;;;;;;;;;6169117;23;20286;-95
2022/10/23 07:02:52;;;;;;;0.10;0.10;;;;;;;;;;6169017;23;20019;-94
2022/10/23 07:05:18;;;;;;;0.10;0.10;;;;;;;;;;6170536;23;20397;-94
2022/10/23 07:07:44;;;;;;;0.10;0.10;;;;;;;;;;6168530;23;20062;-91
2022/10/23 07:10:14;;;;;;;0.10;0.10;;;;;;;;;;6167721;23;20011;-94
2022/10/23 07:12:40;;;;;;;0.10;0.10;;;;;;;;;;6194771;23;20016;-95
2022/10/23 07:15:08;;;;;;;0.10;0.10;;;;;;;;;;6169110;23;20016;-93
2022/10/23 07:17:34;;;;;;;0.10;0.10;;;;;;;;;;6193454;23;20071;-93
2022/10/23 07:20:00;;;;;;;0.10;0.10;;;;;;;;;;6168963;23;20023;-93
2022/10/23 07:22:26;;;;;;;0.10;0.10;;;;;;;;;;6169077;23;20008;-93
2022/10/23 07:24:52;;;;;;;0.38;0.38;;;;;;;;;;6168454;23;20043;-93
2022/10/23 07:27:18;;;;;;;0.10;0.10;;;;;;;;;;6168827;23;20051;-94
2022/10/23 07:29:44;;;;;;;0.10;0.10;;;;;;;;;;6169186;23;20008;-94
2022/10/23 07:32:10;;;;;;;0.10;0.10;;;;;;;;;;6168128;23;20048;-93
2022/10/23 07:34:36;;;;;;;0.10;0.10;;;;;;;;;;6183768;23;20095;-93
2022/10/23 07:37:02;;;;;;;0.10;0.10;;;;;;;;;;6193844;23;20056;-94
2022/10/23 07:39:28;;;;;;;0.10;0.10;;;;;;;;;;6193677;23;20097;-94
2022/10/23 07:41:54;;;;;;;0.10;0.10;;;;;;;;;;6193694;23;20445;-93
2022/10/23 07:44:20;;;;;;;0.47;0.20;;;;;;;;;;6193075;23;20019;-93
2022/10/23 07:46:46;;;;;;;0.10;0.10;;;;;;;;;;6193232;23;20012;-93
2022/10/23 07:49:14;;;;;;;0.15;0.15;;;;;;;;;;6217762;23;20446;-93
2022/10/23 07:51:40;;;;;;;0.13;0.13;;;;;;;;;;6193386;23;20019;-94
2022/10/23 07:54:07;;;;;;;0.10;0.10;;;;;;;;;;6193660;23;20023;-93
2022/10/23 07:56:33;;;;;;;0.20;0.20;;;;;;;;;;6192995;23;20035;-93
2022/10/23 07:58:59;;;;;;;0.10;0.10;;;;;;;;;;6193772;23;20195;-94
2022/10/23 08:01:32;;;;;;;0.20;0.20;;;;;;;;;;6192729;23;20047;-94
2022/10/23 08:03:58;;;;;;;0.10;0.10;;;;;;;;;;6193717;23;20019;-94
2022/10/23 08:06:24;;;;;;;0.10;0.10;;;;;;;;;;6193237;23;20048;-94
2022/10/23 08:08:50;;;;;;;0.20;0.20;;;;;;;;;;6193882;23;20051;-94
2022/10/23 08:11:19;;;;;;;0.10;0.10;;;;;;;;;;6194172;23;20012;-93
2022/10/23 08:13:46;;;;;;;0.20;0.20;;;;;;;;;;6195238;23;20018;-93
2022/10/23 08:16:12;;;;;;;0.10;0.10;;;;;;;;;;6194909;22;20039;-93
2022/10/23 08:18:40;;;;;;;0.10;0.10;;;;;;;;;;6195511;23;20023;-93
2022/10/23 08:21:06;;;;;;;0.20;0.20;;;;;;;;;;6195554;23;20341;-93
2022/10/23 08:23:32;;;;;;;0.20;0.20;;;;;;;;;;6195570;23;20066;-93
2022/10/23 08:25:59;;;;;;;0.20;0.20;;;;;;;;;;6195216;22;20015;-93
2022/10/23 08:28:25;;;;;;;0.13;0.13;;;;;;;;;;6195247;23;20012;-93
2022/10/23 08:30:51;;;;;;;0.10;0.10;;;;;;;;;;6196117;23;20130;-93
2022/10/23 08:33:17;;;;;;;0.10;0.10;;;;;;;;;;6195397;22;20086;-93
2022/10/23 08:35:43;;;;;;;0.10;0.10;;;;;;;;;;6170741;23;20453;-93
2022/10/23 08:38:09;;;;;;;0.20;0.20;;;;;;;;;;6195588;23;20016;-93
2022/10/23 08:40:35;;;;;;;0.20;0.20;;;;;;;;;;6170691;23;20019;-93
2022/10/23 08:43:05;;;;;;;0.13;0.13;;;;;;;;;;6170189;23;20278;-93
2022/10/23 08:45:58;;;;;;;0.38;0.20;;;;;;;;;;6170397;23;20095;-93
2022/10/23 08:48:25;;;;;;;0.10;0.10;;;;;;;;;;6189432;23;20012;-93
2022/10/23 08:51:10;;;;;;;0.20;0.20;;;;;;;;;;6169252;23;20023;-93
2022/10/23 08:53:51;;;;;;;0.20;0.20;;;;;;;;;;6220376;23;20095;-93
2022/10/23 08:56:22;;;;;;;0.10;0.10;;;;;;;;;;6170211;22;20019;-93
2022/10/23 08:58:53;;;;;;;0.10;0.10;;;;;;;;;;6194482;23;20042;-93
2022/10/23 09:01:31;;;;;;;0.17;0.17;;;;;;;;;;6169009;23;20016;-93
2022/10/23 09:03:58;;;;;;;0.10;0.10;;;;;;;;;;6193911;23;20114;-93
2022/10/23 09:06:33;;;;;;;0.10;0.10;;;;;;;;;;6195106;23;20008;-92
2022/10/23 09:09:21;;;;;;;0.10;0.10;;;;;;;;;;6169489;23;20456;-93
2022/10/23 09:11:49;;;;;;;0.10;0.10;;;;;;;;;;6193543;23;20012;-93
2022/10/23 09:14:34;;;;;;;0.10;0.10;;;;;;;;;;6169927;23;20314;-92
2022/10/23 09:17:07;;;;;;;0.10;0.10;;;;;;;;;;6193910;23;20016;-93
2022/10/23 09:19:33;;;;;;;0.10;0.10;;;;;;;;;;6169608;23;20309;-92
2022/10/23 09:21:59;;;;;;;0.20;0.20;;;;;;;;;;6169047;23;20310;-93
2022/10/23 09:24:27;;;;;;;0.10;0.10;;;;;;;;;;6169247;23;20012;-92
2022/10/23 09:26:53;;;;;;;0.20;0.20;;;;;;;;;;6169461;23;20449;-93
2022/10/23 09:29:30;;;;;;;0.10;0.10;;;;;;;;;;6169233;23;20094;-92
2022/10/23 09:31:57;;;;;;;0.10;0.10;;;;;;;;;;6169932;23;20066;-93
2022/10/23 09:34:27;;;;;;;0.10;0.10;;;;;;;;;;6181751;23;20016;-92
2022/10/23 09:36:54;;;;;;;0.10;0.10;;;;;;;;;;6193817;23;20134;-93
2022/10/23 09:39:21;;;;;;;0.10;0.10;;;;;;;;;;6193929;23;20016;-92
2022/10/23 09:41:47;;;;;;;0.20;0.20;;;;;;;;;;6193602;23;20012;-93
2022/10/23 09:44:17;;;;;;;0.30;0.30;;;;;;;;;;6194472;23;20016;-92
2022/10/23 09:46:44;;;;;;;0.10;0.10;;;;;;;;;;6194261;23;20019;-92
2022/10/23 09:49:20;;;;;;;0.10;0.10;;;;;;;;;;6194164;23;20372;-92
2022/10/23 09:51:53;;;;;;;0.10;0.10;;;;;;;;;;6219146;23;20378;-92
2022/10/23 09:54:22;;;;;;;0.20;0.20;;;;;;;;;;6194382;23;20099;-93
2022/10/23 09:56:48;;;;;;;0.20;0.20;;;;;;;;;;6193917;23;20012;-92
2022/10/23 09:59:30;;;;;;;0.20;0.20;;;;;;;;;;6193387;23;20016;-92
2022/10/23 10:01:59;;;;;;;0.10;0.10;;;;;;;;;;6193093;23;20047;-91
2022/10/23 10:04:36;;;;;;;0.10;0.10;;;;;;;;;;6193315;23;20342;-92
2022/10/23 10:07:02;;;;;;;0.10;0.10;;;;;;;;;;6193506;23;20012;-92
2022/10/23 10:09:28;;;;;;;0.10;0.10;;;;;;;;;;6218857;23;20110;-92
2022/10/23 10:12:00;;;;;;;0.10;0.10;;;;;;;;;;6219026;23;20012;-92
2022/10/23 10:14:26;;;;;;;;;;;;;;;;;;6194417;23;20522;-92
2022/10/23 10:17:10;;;;;;;0.10;0.10;;;;;;;;;;6218380;23;19971;-92
2022/10/23 10:19:57;;;;;;;0.20;0.20;;;;;;;;;;6218050;23;20042;-91
2022/10/23 10:22:42;;;;;;;0.20;0.20;;;;;;;;;;6193648;23;20020;-91
2022/10/23 10:25:10;;;;;;;0.10;0.10;;;;;;;;;;6193247;23;20019;-92
2022/10/23 10:27:36;;;;;;;0.40;0.40;;;;;;;;;;6193337;23;20441;-91
2022/10/23 10:30:02;;;;;;;0.10;0.10;;;;;;;;;;6217997;23;20008;-92
2022/10/23 10:32:33;;;;;;;0.10;0.10;;;;;;;;;;6218018;23;20008;-92
2022/10/23 10:35:03;;;;;;;0.20;0.20;;;;;;;;;;6216914;23;20437;-92
2022/10/23 10:37:48;;;;;;;0.10;0.10;;;;;;;;;;6193483;23;20063;-92
2022/10/23 10:40:33;;;;;;;0.10;0.10;;;;;;;;;;6218015;23;20070;-92
2022/10/23 10:43:21;;;;;;;0.30;0.30;;;;;;;;;;6218094;23;20086;-92
2022/10/23 10:45:47;;;;;;;0.20;0.20;;;;;;;;;;6217946;23;20019;-92
2022/10/23 10:48:32;;;;;;;0.10;0.10;;;;;;;;;;6193484;23;20091;-91
2022/10/23 10:51:02;;;;;;;0.10;0.10;;;;;;;;;;6218121;23;20016;-92
2022/10/23 10:53:28;;;;;;;0.10;0.10;;;;;;;;;;6192941;23;20108;-91
2022/10/23 10:55:54;;;;;;;0.10;0.10;;;;;;;;;;6217613;23;20012;-91
2022/10/23 10:58:22;;;;;;;1.50;1.40;;;;;;;;;;6192768;23;20012;-91
2022/10/23 11:00:50;;;;;;;0.10;0.10;;;;;;;;;;6218256;23;20023;-92
2022/10/23 11:03:16;;;;;;;0.10;0.10;;;;;;;;;;6193536;23;20043;-92
2022/10/23 11:05:42;;;;;;;0.10;0.10;;;;;;;;;;6218017;23;20388;-91
2022/10/23 11:08:13;;;;;;;0.20;0.15;;;;;;;;;;6192723;23;20012;-92
2022/10/23 11:10:40;;;;;;;0.10;0.10;;;;;;;;;;6193145;23;20012;-92
2022/10/23 11:13:06;;;;;;;0.68;0.68;;;;;;;;;;6192894;23;20016;-92
2022/10/23 11:15:38;;;;;;;0.20;0.20;;;;;;;;;;6193650;23;20012;-92
2022/10/23 11:18:05;;;;;;;0.28;0.28;;;;;;;;;;6192698;23;20082;-91
2022/10/23 11:20:41;;;;;;;0.20;0.20;;;;;;;;;;6192679;23;20016;-92
2022/10/23 11:23:12;;;;;;;0.10;0.10;;;;;;;;;;6192789;23;20452;-91
2022/10/23 11:25:57;;;;;;;0.10;0.10;;;;;;;;;;6193007;23;20069;-92
2022/10/23 11:28:32;;;;;;;0.10;0.10;;;;;;;;;;6217519;23;20012;-92
2022/10/23 11:31:02;;;;;;;0.10;0.10;;;;;;;;;;6218019;23;20012;-91
2022/10/23 11:33:34;;;;;;;0.10;0.10;;;;;;;;;;6193263;23;20039;-91
2022/10/23 11:36:22;;;;;;;0.10;0.10;;;;;;;;;;6221030;22;20023;-92
2022/10/23 11:38:49;;;;;;;0.10;0.10;;;;;;;;;;6203691;23;20446;-91
2022/10/23 11:41:18;;;;;;;0.10;0.10;;;;;;;;;;6199438;23;20023;-92
2022/10/23 11:43:51;;;;;;;0.17;0.17;;;;;;;;;;6227470;23;20008;-92
2022/10/23 11:46:24;;;;;;;0.10;0.10;;;;;;;;;;6228717;22;20410;-92
2022/10/23 11:48:50;;;;;;;0.10;0.10;;;;;;;;;;6228444;23;20018;-92
2022/10/23 11:51:27;;;;;;;0.10;0.10;;;;;;;;;;6228950;23;20027;-92
2022/10/23 11:53:53;;;;;;;0.10;0.10;;;;;;;;;;6203960;23;20016;-92
2022/10/23 11:56:19;;;;;;;0.10;0.10;;;;;;;;;;6252119;22;20026;-91
2022/10/23 11:58:49;;;;;;;0.40;0.40;;;;;;;;;;6226002;23;20012;-92
2022/10/23 12:01:25;;;;;;;0.10;0.10;;;;;;;;;;6199314;23;20019;-92
2022/10/23 12:03:54;;;;;;;0.10;0.10;;;;;;;;;;6196863;23;20164;-91
2022/10/23 12:06:22;;;;;;;0.10;0.10;;;;;;;;;;6222221;22;20019;-91
2022/10/23 12:08:50;;;;;;;0.10;0.10;;;;;;;;;;6197475;23;20047;-92
2022/10/23 12:11:25;;;;;;;0.10;0.10;;;;;;;;;;6196325;23;20019;-92
2022/10/23 12:13:52;;;;;;;0.10;0.10;;;;;;;;;;6196729;23;20020;-91
2022/10/23 12:16:18;;;;;;;0.20;0.20;;;;;;;;;;6222383;22;20012;-91
2022/10/23 12:18:51;;;;;;;0.10;0.10;;;;;;;;;;6197249;23;20023;-91
2022/10/23 12:21:26;;;;;;;0.10;0.10;;;;;;;;;;6223247;23;20066;-92
2022/10/23 12:24:04;;;;;;;0.10;0.10;;;;;;;;;;6226289;23;20009;-92
2022/10/23 12:26:30;;;;;;;0.10;0.10;;;;;;;;;;6199588;23;20373;-91
2022/10/23 12:29:16;;;;;;;0.10;0.10;;;;;;;;;;6226044;23;20058;-91
2022/10/23 12:31:54;;;;;;;0.10;0.10;;;;;;;;;;6200898;23;20016;-91
2022/10/23 12:34:23;;;;;;;0.10;0.10;;;;;;;;;;6198557;23;20027;-91
2022/10/23 12:36:51;;;;;;;0.20;0.20;;;;;;;;;;6223701;23;20023;-92
2022/10/23 12:39:24;;;;;;;0.20;0.20;;;;;;;;;;6197115;23;20012;-91
2022/10/23 12:41:50;;;;;;;0.10;0.10;;;;;;;;;;6196065;23;20027;-92
2022/10/23 12:44:16;;;;;;;0.10;0.10;;;;;;;;;;6195985;23;20008;-91
2022/10/23 12:46:42;;;;;;;0.10;0.10;;;;;;;;;;6196072;23;20023;-92
2022/10/23 12:49:30;;;;;;;0.10;0.10;;;;;;;;;;6194378;23;20019;-91
2022/10/23 12:52:03;;;;;;;0.10;0.10;;;;;;;;;;6194913;23;20047;-91
2022/10/23 12:54:33;;;;;;;0.10;0.10;;;;;;;;;;6193885;23;20071;-91
2022/10/23 12:56:59;;;;;;;0.10;0.10;;;;;;;;;;6193598;23;20022;-91
2022/10/23 12:59:25;;;;;;;0.10;0.10;;;;;;;;;;6193997;23;20039;-91
2022/10/23 13:01:52;;;;;;;0.10;0.10;;;;;;;;;;6193914;23;20069;-91
2022/10/23 13:04:23;;;;;;;0.10;0.10;;;;;;;;;;6194053;23;20015;-91
2022/10/23 13:06:50;;;;;;;0.38;0.20;;;;;;;;;;6194055;23;20493;-91
2022/10/23 13:09:43;;;;;;;0.10;0.10;;;;;;;;;;6194363;23;20019;-91
2022/10/23 13:12:14;;;;;;;0.20;0.20;;;;;;;;;;6218808;23;20445;-92
2022/10/23 13:14:40;;;;;;;0.73;0.73;;;;;;;;;;6194030;23;20023;-91
2022/10/23 13:17:07;;;;;;;0.10;0.10;;;;;;;;;;6193865;23;20015;-91
2022/10/23 13:19:33;;;;;;;0.10;0.10;;;;;;;;;;6193592;23;20416;-91
2022/10/23 13:21:59;;;;;;;0.20;0.20;;;;;;;;;;6193425;23;20012;-91
2022/10/23 13:24:26;;;;;;;0.10;0.10;;;;;;;;;;6194112;23;20013;-91
2022/10/23 13:26:53;;;;;;;0.10;0.10;;;;;;;;;;6194031;23;20012;-91
2022/10/23 13:29:19;;;;;;;0.20;0.20;;;;;;;;;;6218775;23;20012;-91
2022/10/23 13:31:45;;;;;;;0.32;0.32;;;;;;;;;;6218466;23;20012;-89
2022/10/23 13:34:16;;;;;;;0.40;0.40;;;;;;;;;;6193426;23;20398;-91
2022/10/23 13:36:50;;;;;;;0.20;0.20;;;;;;;;;;6193209;23;20027;-91
2022/10/23 13:39:16;;;;;;;0.10;0.10;;;;;;;;;;6193880;23;20016;-91
2022/10/23 13:41:43;;;;;;;0.13;0.13;;;;;;;;;;6193755;23;20066;-91
2022/10/23 13:44:12;;;;;;;0.20;0.20;;;;;;;;;;6193231;23;20008;-90
2022/10/23 13:46:40;;;;;;;0.73;0.50;;;;;;;;;;6193365;23;20036;-91
2022/10/23 13:49:06;;;;;;;0.10;0.10;;;;;;;;;;6193777;23;20040;-91
2022/10/23 13:51:34;;;;;;;0.10;0.10;;;;;;;;;;6193231;23;20020;-91
2022/10/23 13:54:00;;;;;;;0.10;0.10;;;;;;;;;;6193073;23;20016;-91
2022/10/23 13:56:26;;;;;;;0.10;0.10;;;;;;;;;;6193940;23;20023;-91
2022/10/23 13:58:52;;;;;;;0.10;0.10;;;;;;;;;;6193385;23;20149;-91
2022/10/23 14:01:22;;;;;;;0.10;0.10;;;;;;;;;;6192896;23;20063;-91
2022/10/23 14:03:51;;;;;;;0.15;0.15;;;;;;;;;;6192911;23;20102;-91
2022/10/23 14:06:17;;;;;;;0.10;0.10;;;;;;;;;;6193289;22;20008;-91
2022/10/23 14:08:43;;;;;;;0.10;0.10;;;;;;;;;;6193563;23;20321;-91
2022/10/23 14:11:13;;;;;;;0.10;0.10;;;;;;;;;;6193565;23;20012;-91
2022/10/23 14:13:39;;;;;;;0.20;0.20;;;;;;;;;;6193129;23;20012;-91
2022/10/23 14:16:05;;;;;;;0.10;0.10;;;;;;;;;;6193032;22;20092;-92
2022/10/23 14:18:35;;;;;;;0.20;0.20;;;;;;;;;;6195599;23;20016;-94
2022/10/23 14:21:02;;;;;;;0.20;0.20;;;;;;;;;;6194913;23;20098;-92
2022/10/23 14:23:28;;;;;;;0.15;0.15;;;;;;;;;;6193499;23;20023;-94
2022/10/23 14:25:54;;;;;;;0.10;0.10;;;;;;;;;;6193926;23;20008;-94
2022/10/23 14:28:20;;;;;;;0.10;0.10;;;;;;;;;;6193580;23;20012;-91
2022/10/23 14:30:46;;;;;;;0.10;0.10;;;;;;;;;;6193383;23;20019;-91
2022/10/23 14:33:11;;;;;;;0.20;0.20;;;;;;;;;;6192721;23;20027;-91
2022/10/23 14:35:42;;;;;;;0.30;0.30;;;;;;;;;;6193087;23;20020;-91
2022/10/23 14:38:08;;;;;;;0.10;0.10;;;;;;;;;;6168219;23;20091;-89
2022/10/23 14:40:37;;;;;;;0.20;0.20;;;;;;;;;;6192436;23;20048;-89
2022/10/23 14:43:03;;;;;;;0.20;0.20;;;;;;;;;;6192693;23;20048;-91
2022/10/23 14:45:29;;;;;;;0.10;0.10;;;;;;;;;;6168126;23;20015;-93
2022/10/23 14:47:56;;;;;;;0.10;0.10;;;;;;;;;;6168288;23;20012;-93
2022/10/23 14:50:22;;;;;;;0.13;0.13;;;;;;;;;;6168139;23;20073;-91
2022/10/23 14:52:48;;;;;;;0.10;0.10;;;;;;;;;;6192493;23;20012;-91
2022/10/23 14:55:14;;;;;;;0.20;0.20;;;;;;;;;;6192920;23;20450;-91
2022/10/23 14:57:40;;;;;;;0.10;0.10;;;;;;;;;;6192864;23;20014;-92
2022/10/23 15:00:08;;;;;;;0.10;0.10;;;;;;;;;;6167687;23;20313;-91
2022/10/23 15:02:34;;;;;;;0.10;0.10;;;;;;;;;;6193135;23;20019;-92
2022/10/23 15:05:00;;;;;;;0.10;0.10;;;;;;;;;;6168015;23;20009;-93
2022/10/23 15:07:26;;;;;;;0.10;0.10;;;;;;;;;;6168530;23;20087;-92